La Plume, Pennsylvania
Current Conditions -  °F | °C
As of 7:54 AM on Thursday 27 Nov 2014 (Local Time) from KAVP Reporting Station
Light Snow Light Snow  
Wind Chill: 25°   Ceiling: 1200
Heat Index: 30°   Visibility: 1.7mi
Dew Point: 26°   Wind: 5mph
Humidity: 85%   Direction: 260°W
Pressure: 29.98"   Gusts: NA
Location:  41.56°N, 75.75°W
Report Text: KAVP 271254Z AUTO 26004KT 1 3/4SM -SN BR OVC012 M01/M03 A2998 RMK AO2 SLP159 P0000 T10111033
Loading
Personal Weather Stations






























Interactive Weather Map New forecast layout! Learn more

10-Day Weather Forecast

Advertisements
Track Severe Weather on mobile